createdAt,value
2019-02-27T00:01:03.499Z,19.60
2019-02-27T00:03:32.844Z,22.77
2019-02-27T00:06:02.198Z,22.17
2019-02-27T00:08:31.573Z,21.57
2019-02-27T00:11:00.920Z,24.13
2019-02-27T00:13:30.280Z,23.57
2019-02-27T00:15:59.666Z,22.30
2019-02-27T00:18:29.132Z,22.50
2019-02-27T00:20:58.534Z,21.63
2019-02-27T00:23:27.966Z,20.27
2019-02-27T00:25:57.331Z,21.37
2019-02-27T00:28:26.708Z,21.23
2019-02-27T00:30:56.412Z,20.67
2019-02-27T00:33:28.476Z,18.63
2019-02-27T00:35:56.891Z,18.27
2019-02-27T00:38:26.267Z,18.43
2019-02-27T00:40:55.761Z,21.50
2019-02-27T00:43:25.992Z,18.87
2019-02-27T00:45:56.251Z,17.97
2019-02-27T00:48:26.259Z,19.10
2019-02-27T00:50:56.079Z,18.50
2019-02-27T00:53:25.445Z,19.27
2019-02-27T00:55:54.836Z,18.27
2019-02-27T00:58:26.826Z,16.23
2019-02-27T01:00:55.320Z,20.30
2019-02-27T01:03:26.325Z,21.27
2019-02-27T01:05:55.956Z,21.00
2019-02-27T01:08:27.616Z,19.97
2019-02-27T01:10:56.452Z,20.53
2019-02-27T01:13:25.823Z,18.13
2019-02-27T01:15:55.201Z,19.13
2019-02-27T01:18:24.593Z,19.03
2019-02-27T01:20:54.110Z,15.73
2019-02-27T01:23:23.503Z,20.57
2019-02-27T01:25:56.093Z,16.90
2019-02-27T01:28:23.961Z,16.03
2019-02-27T01:30:53.348Z,16.47
2019-02-27T01:33:22.732Z,17.63
2019-02-27T01:35:52.415Z,18.10
2019-02-27T01:38:21.926Z,17.17
2019-02-27T01:40:51.666Z,17.50
2019-02-27T01:43:21.535Z,16.17
2019-02-27T01:45:51.845Z,13.50
2019-02-27T01:48:22.186Z,13.73
2019-02-27T01:50:55.182Z,13.40
2019-02-27T01:53:23.960Z,14.57
2019-02-27T01:55:56.159Z,14.73
2019-02-27T01:58:24.394Z,10.10
2019-02-27T02:00:56.025Z,16.63
2019-02-27T02:03:24.856Z,13.20
2019-02-27T02:05:56.994Z,11.90
2019-02-27T02:08:25.552Z,16.00
2019-02-27T02:10:56.143Z,11.67
2019-02-27T02:14:24.368Z,11.57
2019-02-27T02:17:28.298Z,9.73
2019-02-27T02:20:22.171Z,10.43
2019-02-27T02:23:48.412Z,10.67
2019-02-27T02:26:40.998Z,10.30
2019-02-27T02:29:53.164Z,11.07
2019-02-27T02:32:52.344Z,13.07
2019-02-27T02:35:50.705Z,11.83
2019-02-27T02:39:09.974Z,12.37
2019-02-27T02:41:55.680Z,9.77
2019-02-27T02:45:07.432Z,11.90
2019-02-27T02:47:55.457Z,11.60
2019-02-27T02:50:38.492Z,16.77
2019-02-27T02:55:56.953Z,10.73
2019-02-27T02:59:06.709Z,9.73
2019-02-27T03:01:53.669Z,9.90
2019-02-27T03:05:08.374Z,9.73
2019-02-27T03:08:05.247Z,10.17
2019-02-27T03:11:24.930Z,9.87
2019-02-27T03:14:26.388Z,8.43
2019-02-27T03:17:27.601Z,10.83
2019-02-27T03:20:32.065Z,12.00
2019-02-27T03:23:29.574Z,8.60
2019-02-27T03:26:08.047Z,8.40
2019-02-27T03:29:15.829Z,10.47
2019-02-27T03:32:04.722Z,10.93
2019-02-27T03:35:27.436Z,10.30
2019-02-27T03:38:23.735Z,9.60
2019-02-27T03:41:41.430Z,8.40
2019-02-27T03:44:38.058Z,8.00
2019-02-27T03:47:35.739Z,8.83
2019-02-27T03:50:42.435Z,9.43
2019-02-27T03:53:28.648Z,8.00
2019-02-27T03:56:43.531Z,7.73
2019-02-27T03:59:45.041Z,10.00
2019-02-27T04:02:51.232Z,9.30
2019-02-27T04:06:19.643Z,10.23
2019-02-27T04:08:56.818Z,10.87
2019-02-27T04:11:26.288Z,9.83
2019-02-27T04:14:03.058Z,10.63
2019-02-27T04:16:29.372Z,9.60
2019-02-27T04:19:03.147Z,11.50
2019-02-27T04:21:30.506Z,10.03
2019-02-27T04:23:59.944Z,9.47
2019-02-27T04:26:29.323Z,14.03
2019-02-27T04:29:04.063Z,8.53
2019-02-27T04:31:30.672Z,10.80
2019-02-27T04:34:01.200Z,12.03
2019-02-27T04:36:30.742Z,13.67
2019-02-27T04:39:02.550Z,13.47
2019-02-27T04:41:31.223Z,12.97
2019-02-27T04:44:05.265Z,15.40
2019-02-27T04:46:31.660Z,12.67
2019-02-27T04:49:03.919Z,9.60
2019-02-27T04:51:32.287Z,13.93
2019-02-27T04:54:06.258Z,9.90
2019-02-27T04:56:32.791Z,12.27
2019-02-27T04:59:02.180Z,14.27
2019-02-27T05:01:31.546Z,9.40
2019-02-27T05:04:01.419Z,12.17
2019-02-27T05:06:31.736Z,15.37
2019-02-27T05:09:01.119Z,10.47
2019-02-27T05:11:30.488Z,10.63
2019-02-27T05:13:59.865Z,12.13
2019-02-27T05:16:29.242Z,12.97
2019-02-27T05:19:03.535Z,15.33
2019-02-27T05:21:29.698Z,13.10
2019-02-27T05:23:59.094Z,13.60
2019-02-27T05:26:28.458Z,12.93
2019-02-27T05:28:59.113Z,12.97
2019-02-27T05:31:28.482Z,14.67
2019-02-27T05:33:57.873Z,12.13
2019-02-27T05:36:29.040Z,12.00
2019-02-27T05:38:58.279Z,15.10
2019-02-27T05:41:27.643Z,12.20
2019-02-27T05:43:56.972Z,13.57
2019-02-27T05:46:26.341Z,9.20
2019-02-27T05:48:55.797Z,12.53
2019-02-27T05:51:25.179Z,14.80
2019-02-27T05:53:56.162Z,16.17
2019-02-27T05:56:25.645Z,15.73
2019-02-27T05:58:56.327Z,16.77
2019-02-27T06:01:26.291Z,20.13
2019-02-27T06:03:55.661Z,13.53
2019-02-27T06:06:25.029Z,16.17
2019-02-27T06:08:54.643Z,14.27
2019-02-27T06:11:23.986Z,14.63
2019-02-27T06:13:53.453Z,11.87
2019-02-27T06:16:22.808Z,16.97
2019-02-27T06:18:56.011Z,16.77
2019-02-27T06:21:23.307Z,16.63
2019-02-27T06:23:52.741Z,13.77
2019-02-27T06:26:22.166Z,15.17
2019-02-27T06:28:51.521Z,15.10
2019-02-27T06:31:20.886Z,18.07
2019-02-27T06:33:50.288Z,13.33
2019-02-27T06:36:19.648Z,13.80
2019-02-27T06:38:49.051Z,19.27
2019-02-27T06:41:18.519Z,19.23
2019-02-27T06:43:47.924Z,14.10
2019-02-27T06:46:19.892Z,15.97
2019-02-27T06:48:48.436Z,15.70
2019-02-27T06:51:17.815Z,16.63
2019-02-27T06:53:47.198Z,15.33
2019-02-27T06:56:16.578Z,15.53
2019-02-27T06:58:47.523Z,15.27
2019-02-27T07:01:17.172Z,15.10
2019-02-27T07:03:46.563Z,15.83
2019-02-27T07:06:15.935Z,14.93
2019-02-27T07:08:45.516Z,14.13
2019-02-27T07:11:14.912Z,13.17
2019-02-27T07:13:44.262Z,15.13
2019-02-27T07:16:13.622Z,13.27
2019-02-27T07:18:43.019Z,16.43
2019-02-27T07:21:12.430Z,13.37
2019-02-27T07:23:41.877Z,12.90
2019-02-27T07:26:13.269Z,15.60
2019-02-27T07:28:43.630Z,13.93
2019-02-27T07:31:17.563Z,13.43
2019-02-27T07:33:44.625Z,13.17
2019-02-27T07:36:14.042Z,14.00
2019-02-27T07:38:43.458Z,13.30
2019-02-27T07:41:17.529Z,13.53
2019-02-27T07:43:44.072Z,14.33
2019-02-27T07:46:13.557Z,15.57
2019-02-27T07:48:42.940Z,14.53
2019-02-27T07:51:12.295Z,14.37
2019-02-27T07:53:41.653Z,13.87
2019-02-27T07:56:11.100Z,14.63
2019-02-27T07:58:40.468Z,11.00
2019-02-27T08:01:09.998Z,15.80
2019-02-27T08:03:39.707Z,16.13
2019-02-27T08:06:09.074Z,13.90
2019-02-27T08:08:38.446Z,17.83
2019-02-27T08:11:07.849Z,12.77
2019-02-27T08:13:37.253Z,15.93
2019-02-27T08:16:06.612Z,12.60
2019-02-27T08:18:37.631Z,13.07
2019-02-27T08:21:07.088Z,14.63
2019-02-27T08:23:36.435Z,15.80
2019-02-27T08:26:05.866Z,13.33
2019-02-27T08:28:35.295Z,15.90
2019-02-27T08:31:04.688Z,13.10
2019-02-27T08:33:34.045Z,16.17
2019-02-27T08:36:03.456Z,19.50
2019-02-27T08:38:32.792Z,19.30
2019-02-27T08:41:02.154Z,16.10
2019-02-27T08:43:31.546Z,18.53
2019-02-27T08:46:02.389Z,15.13
2019-02-27T08:48:32.058Z,15.60
2019-02-27T08:51:05.687Z,14.23
2019-02-27T08:53:34.496Z,16.83
2019-02-27T08:56:03.702Z,15.27
2019-02-27T08:58:33.137Z,16.37
2019-02-27T09:01:03.483Z,14.70
2019-02-27T09:03:36.211Z,13.73
2019-02-27T09:06:04.004Z,19.13
2019-02-27T09:08:33.352Z,18.50
2019-02-27T09:11:06.505Z,15.50
2019-02-27T09:13:33.878Z,15.83
2019-02-27T09:16:03.306Z,16.07
2019-02-27T09:18:33.363Z,15.63
2019-02-27T09:21:03.811Z,14.07
2019-02-27T09:23:33.635Z,17.07
2019-02-27T09:26:03.576Z,14.73
2019-02-27T09:28:33.103Z,13.53
2019-02-27T09:31:04.326Z,12.57
2019-02-27T09:33:38.863Z,12.70
2019-02-27T09:36:04.692Z,12.57
2019-02-27T09:38:34.039Z,13.20
2019-02-27T09:41:03.545Z,11.17
2019-02-27T09:43:32.965Z,12.53
2019-02-27T09:46:02.368Z,11.43
2019-02-27T09:48:33.445Z,12.90
2019-02-27T09:51:02.914Z,13.90
2019-02-27T09:53:34.032Z,13.13
2019-02-27T09:56:03.676Z,12.97
2019-02-27T09:58:33.064Z,10.83
2019-02-27T10:01:16.974Z,14.93
2019-02-27T10:03:46.478Z,15.57
2019-02-27T10:06:15.865Z,16.77
2019-02-27T10:08:45.367Z,13.20
2019-02-27T10:11:18.850Z,12.57
2019-02-27T10:13:45.871Z,15.63
2019-02-27T10:16:15.276Z,13.97
2019-02-27T10:18:44.644Z,11.93
2019-02-27T10:21:14.036Z,14.30
2019-02-27T10:23:43.418Z,11.57
2019-02-27T10:26:12.825Z,16.47
2019-02-27T10:28:44.025Z,11.23
2019-02-27T10:31:13.522Z,12.43
2019-02-27T10:33:43.681Z,12.10
2019-02-27T10:36:13.238Z,13.77
2019-02-27T10:38:42.569Z,15.37
2019-02-27T10:41:11.943Z,11.90
2019-02-27T10:43:41.382Z,15.63
2019-02-27T10:46:10.734Z,11.10
2019-02-27T10:48:40.249Z,15.40
2019-02-27T10:51:10.195Z,11.10
2019-02-27T10:53:39.627Z,10.00
2019-02-27T10:56:09.024Z,12.13
2019-02-27T10:58:38.400Z,12.73
2019-02-27T11:01:07.807Z,8.57
2019-02-27T11:03:37.207Z,8.30
2019-02-27T11:06:06.594Z,11.23
2019-02-27T11:08:36.075Z,13.07
2019-02-27T11:11:05.549Z,11.43
2019-02-27T11:13:34.959Z,10.70
2019-02-27T11:16:04.419Z,10.07
2019-02-27T11:18:33.802Z,9.07
2019-02-27T11:21:03.187Z,11.63
2019-02-27T11:23:32.571Z,12.80
2019-02-27T11:26:02.002Z,12.53
2019-02-27T11:28:31.392Z,11.57
2019-02-27T11:31:00.880Z,10.77
2019-02-27T11:33:33.452Z,12.03
2019-02-27T11:36:03.231Z,13.67
2019-02-27T11:38:32.736Z,14.53
2019-02-27T11:41:02.204Z,15.90
2019-02-27T11:43:31.820Z,15.13
2019-02-27T11:46:01.291Z,14.20
2019-02-27T11:48:30.667Z,12.50
2019-02-27T11:51:00.048Z,15.87
2019-02-27T11:53:29.447Z,11.15
2019-02-27T11:55:58.848Z,13.63
2019-02-27T11:58:28.331Z,13.50
2019-02-27T12:00:57.735Z,10.73
2019-02-27T12:03:27.132Z,12.87
2019-02-27T12:05:56.477Z,11.40
2019-02-27T12:08:26.843Z,15.13
2019-02-27T12:10:56.349Z,12.80
2019-02-27T12:13:28.793Z,14.70
2019-02-27T12:15:58.224Z,14.40
2019-02-27T12:18:27.659Z,15.77
2019-02-27T12:20:57.022Z,12.13
2019-02-27T12:23:26.460Z,14.67
2019-02-27T12:25:55.945Z,13.07
2019-02-27T12:28:25.753Z,13.73
2019-02-27T12:30:55.140Z,12.63
2019-02-27T12:33:29.209Z,11.50
2019-02-27T12:35:55.648Z,14.50
2019-02-27T12:38:25.038Z,19.07
2019-02-27T12:40:58.261Z,13.33
2019-02-27T12:43:25.555Z,14.10
2019-02-27T12:45:57.678Z,16.43
2019-02-27T12:48:26.127Z,11.53
2019-02-27T12:50:55.539Z,13.47
2019-02-27T12:53:24.929Z,13.60
2019-02-27T12:55:54.358Z,16.30
2019-02-27T12:58:24.426Z,14.43
2019-02-27T13:00:54.417Z,10.97
2019-02-27T13:03:23.802Z,12.33
2019-02-27T13:05:53.195Z,12.50
2019-02-27T13:08:22.579Z,11.97
2019-02-27T13:10:52.022Z,15.47
2019-02-27T13:13:25.485Z,12.33
2019-02-27T13:15:52.439Z,15.83
2019-02-27T13:18:21.887Z,17.90
2019-02-27T13:20:51.316Z,14.13
2019-02-27T13:23:20.701Z,17.90
2019-02-27T13:25:50.126Z,15.07
2019-02-27T13:28:20.395Z,14.97
2019-02-27T13:30:49.833Z,19.83
2019-02-27T13:33:19.236Z,19.83
2019-02-27T13:35:48.625Z,24.97
2019-02-27T13:38:18.665Z,22.70
2019-02-27T13:40:48.149Z,26.80
2019-02-27T13:43:17.870Z,25.43
2019-02-27T13:45:48.149Z,25.53
2019-02-27T13:48:17.491Z,22.47
2019-02-27T13:50:46.868Z,23.80
2019-02-27T13:53:16.282Z,21.87
2019-02-27T13:55:48.238Z,20.27
2019-02-27T13:58:16.860Z,18.50
2019-02-27T14:00:46.245Z,28.67
2019-02-27T14:03:15.635Z,15.33
2019-02-27T14:05:45.032Z,13.80
2019-02-27T14:08:14.517Z,16.23
2019-02-27T14:10:43.971Z,13.13
2019-02-27T14:13:13.352Z,14.20
2019-02-27T14:15:42.756Z,18.73
2019-02-27T14:18:13.432Z,19.53
2019-02-27T14:20:43.272Z,15.93
2019-02-27T14:23:14.520Z,18.47
2019-02-27T14:25:44.147Z,19.17
2019-02-27T14:28:13.724Z,16.33
2019-02-27T14:30:45.620Z,17.77
2019-02-27T14:33:15.040Z,16.60
2019-02-27T14:35:44.415Z,13.50
2019-02-27T14:38:15.044Z,13.57
2019-02-27T14:40:44.444Z,14.37
2019-02-27T14:43:13.811Z,11.60
2019-02-27T14:45:43.235Z,10.40
2019-02-27T14:48:12.666Z,9.53
2019-02-27T14:50:42.065Z,10.27
2019-02-27T14:53:11.589Z,9.77
2019-02-27T14:55:40.938Z,10.50
2019-02-27T14:58:10.319Z,11.20
2019-02-27T15:00:40.856Z,11.17
2019-02-27T15:03:10.558Z,11.83
2019-02-27T15:05:43.148Z,13.33
2019-02-27T15:08:11.076Z,10.40
2019-02-27T15:10:41.351Z,10.83
2019-02-27T15:13:10.865Z,13.80
2019-02-27T15:15:43.312Z,13.93
2019-02-27T15:18:11.727Z,13.00
2019-02-27T15:20:41.256Z,12.17
2019-02-27T15:23:10.673Z,12.57
2019-02-27T15:25:43.188Z,12.83
2019-02-27T15:28:11.167Z,12.23
2019-02-27T15:30:40.608Z,17.67
2019-02-27T15:33:10.002Z,16.33
2019-02-27T15:35:39.487Z,17.70
2019-02-27T15:38:11.737Z,20.20
2019-02-27T15:40:40.066Z,18.87
2019-02-27T15:43:11.465Z,18.37
2019-02-27T15:45:47.375Z,16.00
2019-02-27T15:48:11.742Z,17.93
2019-02-27T15:50:41.131Z,16.03
2019-02-27T15:53:14.590Z,16.87
2019-02-27T15:55:41.626Z,16.17
2019-02-27T15:58:11.051Z,14.77
2019-02-27T16:00:40.432Z,14.90
2019-02-27T16:03:11.749Z,14.00
2019-02-27T16:05:40.936Z,16.27
2019-02-27T16:08:10.350Z,18.33
2019-02-27T16:10:43.765Z,16.80
2019-02-27T16:13:10.962Z,14.53
2019-02-27T16:15:40.435Z,18.67
2019-02-27T16:18:09.950Z,15.33
2019-02-27T16:20:39.325Z,20.13
2019-02-27T16:23:09.132Z,15.33
2019-02-27T16:25:38.586Z,19.30
2019-02-27T16:28:11.332Z,16.23
2019-02-27T16:30:39.110Z,14.57
2019-02-27T16:33:08.580Z,14.87
2019-02-27T16:35:41.655Z,16.90
2019-02-27T16:38:09.286Z,15.07
2019-02-27T16:40:38.694Z,14.83
2019-02-27T16:43:10.288Z,16.17
2019-02-27T16:45:39.542Z,13.97
2019-02-27T16:48:11.116Z,15.43
2019-02-27T16:50:40.205Z,16.47
2019-02-27T16:53:09.578Z,14.60
2019-02-27T16:55:39.625Z,14.73
2019-02-27T16:58:09.113Z,19.67
2019-02-27T17:00:39.178Z,25.10
2019-02-27T17:03:12.923Z,68.93
2019-02-27T17:05:43.227Z,33.17
2019-02-27T17:08:11.565Z,36.93
2019-02-27T17:10:40.986Z,18.70
2019-02-27T17:13:14.397Z,20.03
2019-02-27T17:15:41.495Z,14.97
2019-02-27T17:18:12.680Z,17.60
2019-02-27T17:20:45.703Z,15.00
2019-02-27T17:23:13.167Z,16.60
2019-02-27T17:25:42.622Z,14.03
2019-02-27T17:28:12.044Z,16.57
2019-02-27T17:30:41.418Z,14.40
2019-02-27T17:33:10.842Z,20.63
2019-02-27T17:35:40.211Z,18.10
2019-02-27T17:38:10.867Z,17.20
2019-02-27T17:40:40.748Z,17.37
2019-02-27T17:43:10.140Z,13.53
2019-02-27T17:45:39.650Z,13.57
2019-02-27T17:48:09.392Z,12.93
2019-02-27T17:50:40.177Z,13.37
2019-02-27T17:53:09.554Z,15.73
2019-02-27T17:55:41.744Z,17.87
2019-02-27T17:58:10.055Z,18.43
2019-02-27T18:00:43.033Z,16.77
2019-02-27T18:03:12.449Z,15.73
2019-02-27T18:05:41.967Z,14.07
2019-02-27T18:08:16.297Z,16.97
2019-02-27T18:10:45.154Z,16.87
2019-02-27T18:13:14.515Z,15.10
2019-02-27T18:15:43.964Z,18.13
2019-02-27T18:18:13.365Z,18.03
2019-02-27T18:20:42.790Z,19.00
2019-02-27T18:23:12.153Z,22.47
2019-02-27T18:25:42.327Z,17.63
2019-02-27T18:28:11.814Z,16.70
2019-02-27T18:30:42.703Z,16.97
2019-02-27T18:33:13.958Z,17.60
2019-02-27T18:35:45.939Z,22.97
2019-02-27T18:38:15.360Z,19.10
2019-02-27T18:40:44.735Z,18.67
2019-02-27T18:43:14.154Z,17.33
2019-02-27T18:45:43.546Z,19.67
2019-02-27T18:48:15.786Z,19.10
2019-02-27T18:50:45.188Z,19.13
2019-02-27T18:53:14.558Z,16.93
2019-02-27T18:55:44.213Z,16.33
2019-02-27T18:58:13.748Z,18.13
2019-02-27T19:00:43.219Z,23.23
2019-02-27T19:03:12.720Z,17.30
2019-02-27T19:05:42.362Z,16.33
2019-02-27T19:08:11.721Z,17.67
2019-02-27T19:10:42.544Z,16.70
2019-02-27T19:13:12.166Z,14.73
2019-02-27T19:15:45.470Z,16.63
2019-02-27T19:18:12.981Z,20.20
2019-02-27T19:20:42.599Z,19.23
2019-02-27T19:23:17.160Z,20.03
2019-02-27T19:25:43.373Z,17.60
2019-02-27T19:28:12.850Z,18.33
2019-02-27T19:30:42.636Z,16.50
2019-02-27T19:33:12.083Z,18.10
2019-02-27T19:35:41.462Z,18.30
2019-02-27T19:38:12.957Z,16.37
2019-02-27T19:40:42.134Z,20.00
2019-02-27T19:43:11.498Z,15.63
2019-02-27T19:45:42.286Z,16.70
2019-02-27T19:48:12.012Z,20.23
2019-02-27T19:50:44.916Z,16.50
2019-02-27T19:53:12.626Z,17.13
2019-02-27T19:55:42.051Z,16.77
2019-02-27T19:58:11.416Z,14.20
2019-02-27T20:00:47.978Z,20.90
2019-02-27T20:03:11.998Z,13.77
2019-02-27T20:05:41.515Z,12.23
2019-02-27T20:08:11.151Z,13.23
2019-02-27T20:10:40.682Z,16.90
2019-02-27T20:13:10.186Z,13.10
2019-02-27T20:15:39.752Z,12.03
2019-02-27T20:18:09.512Z,11.13
2019-02-27T20:20:40.977Z,11.67
2019-02-27T20:23:13.003Z,12.17
2019-02-27T20:25:44.133Z,13.03
2019-02-27T20:28:13.742Z,11.70
2019-02-27T20:30:43.210Z,10.60
2019-02-27T20:33:12.605Z,12.80
2019-02-27T20:35:42.008Z,12.60
2019-02-27T20:38:15.357Z,11.93
2019-02-27T20:40:42.824Z,10.07
2019-02-27T20:43:12.201Z,10.67
2019-02-27T20:45:42.928Z,8.83
2019-02-27T20:48:12.964Z,12.07
2019-02-27T20:50:43.868Z,9.77
2019-02-27T20:53:13.406Z,11.07
2019-02-27T20:55:42.847Z,8.43
2019-02-27T20:58:16.328Z,9.70
2019-02-27T21:00:43.549Z,11.17
2019-02-27T21:03:13.119Z,12.20
2019-02-27T21:05:42.482Z,8.37
2019-02-27T21:08:11.866Z,9.37
2019-02-27T21:10:41.333Z,10.10
2019-02-27T21:13:15.668Z,11.93
2019-02-27T21:15:41.890Z,15.10
2019-02-27T21:18:11.305Z,10.67
2019-02-27T21:20:42.235Z,7.63
2019-02-27T21:23:11.874Z,9.63
2019-02-27T21:25:41.281Z,7.47
2019-02-27T21:28:10.770Z,8.53
2019-02-27T21:30:40.275Z,10.57
2019-02-27T21:33:11.173Z,11.80
2019-02-27T21:35:40.762Z,9.03
2019-02-27T21:38:10.193Z,7.97
2019-02-27T21:40:39.548Z,9.17
2019-02-27T21:43:09.024Z,8.03
2019-02-27T21:45:38.431Z,8.07
2019-02-27T21:48:07.769Z,6.13
2019-02-27T21:50:39.914Z,7.47
2019-02-27T21:53:08.442Z,7.43
2019-02-27T21:55:37.823Z,5.83
2019-02-27T21:58:07.266Z,6.43
2019-02-27T22:00:36.652Z,7.17
2019-02-27T22:03:08.071Z,7.17
2019-02-27T22:05:42.805Z,6.53
2019-02-27T22:08:08.737Z,7.17
2019-02-27T22:10:38.194Z,6.23
2019-02-27T22:13:10.591Z,7.93
2019-02-27T22:15:38.907Z,7.70
2019-02-27T22:18:11.811Z,8.20
2019-02-27T22:20:39.517Z,8.23
2019-02-27T22:23:09.225Z,9.47
2019-02-27T22:25:38.630Z,5.60
2019-02-27T22:28:08.272Z,7.13
2019-02-27T22:30:37.700Z,8.57
2019-02-27T22:33:07.124Z,6.00
2019-02-27T22:35:37.846Z,4.90
2019-02-27T22:38:07.649Z,7.30
2019-02-27T22:40:37.918Z,8.10
2019-02-27T22:43:08.131Z,9.40
2019-02-27T22:45:40.504Z,6.03
2019-02-27T22:48:08.614Z,9.63
2019-02-27T22:50:38.304Z,8.13
2019-02-27T22:53:09.192Z,6.23
2019-02-27T22:55:42.241Z,7.00
2019-02-27T22:58:09.726Z,9.97
2019-02-27T23:01:08.533Z,8.90
2019-02-27T23:03:47.291Z,7.90
2019-02-27T23:06:16.828Z,10.87
2019-02-27T23:08:46.303Z,9.37
2019-02-27T23:11:15.718Z,6.23
2019-02-27T23:13:48.398Z,12.30
2019-02-27T23:16:18.967Z,6.87
2019-02-27T23:18:48.676Z,6.40
2019-02-27T23:21:18.113Z,5.67
2019-02-27T23:23:47.474Z,7.67
2019-02-27T23:26:19.766Z,7.33
2019-02-27T23:28:47.969Z,9.13
2019-02-27T23:31:22.231Z,9.27
2019-02-27T23:33:48.477Z,6.50
2019-02-27T23:36:17.831Z,9.37
2019-02-27T23:38:47.202Z,8.80
2019-02-27T23:41:16.589Z,10.13
2019-02-27T23:43:45.969Z,7.60
2019-02-27T23:46:15.699Z,6.77
2019-02-27T23:48:46.783Z,8.93
2019-02-27T23:51:17.002Z,10.23
2019-02-27T23:53:46.695Z,9.70
2019-02-27T23:56:20.232Z,8.80
2019-02-27T23:58:47.184Z,6.13
